createdAt,value
2023-05-24T00:01:48.260Z,20.10
2023-05-24T00:04:15.169Z,20.10
2023-05-24T00:06:42.609Z,20.10
2023-05-24T00:09:09.284Z,20.10
2023-05-24T00:11:35.967Z,20.10
2023-05-24T00:14:02.571Z,20.10
2023-05-24T00:16:29.384Z,20.10
2023-05-24T00:18:56.024Z,20.10
2023-05-24T00:21:22.640Z,20.10
2023-05-24T00:23:51.755Z,20.10
2023-05-24T00:26:18.378Z,20.10
2023-05-24T00:28:45.072Z,20.10
2023-05-24T00:31:11.737Z,20.30
2023-05-24T00:33:38.343Z,20.00
2023-05-24T00:36:05.054Z,20.00
2023-05-24T00:38:31.719Z,20.00
2023-05-24T00:41:00.923Z,20.00
2023-05-24T00:43:27.662Z,20.00
2023-05-24T00:46:06.055Z,20.00
2023-05-24T00:48:32.802Z,19.90
2023-05-24T00:50:59.410Z,20.00
2023-05-24T00:53:26.223Z,19.90
2023-05-24T00:55:53.282Z,20.10
2023-05-24T00:58:19.896Z,20.00
2023-05-24T01:00:49.715Z,20.10
2023-05-24T01:03:16.518Z,20.10
2023-05-24T01:05:43.198Z,20.10
2023-05-24T01:08:22.861Z,20.20
2023-05-24T01:11:01.326Z,20.10
2023-05-24T01:13:31.524Z,20.10
2023-05-24T01:16:33.753Z,20.10
2023-05-24T01:19:02.423Z,20.10
2023-05-24T01:21:48.406Z,20.00
2023-05-24T01:24:27.340Z,20.00
2023-05-24T01:27:03.168Z,20.00
2023-05-24T01:29:31.303Z,20.00
2023-05-24T01:31:57.931Z,20.00
2023-05-24T01:34:27.841Z,20.00
2023-05-24T01:36:54.586Z,20.00
2023-05-24T01:39:21.994Z,20.10
2023-05-24T01:42:14.745Z,20.20
2023-05-24T01:44:44.528Z,20.20
2023-05-24T01:47:11.185Z,20.20
2023-05-24T01:49:41.333Z,20.20
2023-05-24T01:52:16.228Z,20.20
2023-05-24T01:54:44.602Z,20.20
2023-05-24T01:57:11.651Z,20.20
2023-05-24T01:59:41.447Z,20.20
2023-05-24T02:02:08.185Z,20.40
2023-05-24T02:04:34.845Z,20.20
2023-05-24T02:07:01.592Z,20.20
2023-05-24T02:09:28.211Z,20.20
2023-05-24T02:11:54.861Z,20.20
2023-05-24T02:14:21.455Z,20.10
2023-05-24T02:16:48.146Z,20.10
2023-05-24T02:19:14.932Z,20.20
2023-05-24T02:21:41.539Z,20.10
2023-05-24T02:24:11.269Z,20.00
2023-05-24T02:26:38.458Z,20.00
2023-05-24T02:29:05.191Z,20.00
2023-05-24T02:31:32.012Z,20.10
2023-05-24T02:33:58.858Z,20.00
2023-05-24T02:36:25.472Z,20.00
2023-05-24T02:38:52.122Z,20.00
2023-05-24T02:41:18.962Z,19.90
2023-05-24T02:43:45.710Z,19.90
2023-05-24T02:46:12.631Z,20.10
2023-05-24T02:48:39.462Z,19.90
2023-05-24T02:51:07.111Z,19.90
2023-05-24T02:53:33.750Z,20.00
2023-05-24T02:56:00.420Z,20.00
2023-05-24T02:58:29.072Z,20.00
2023-05-24T03:00:55.915Z,20.10
2023-05-24T03:03:22.794Z,20.20
2023-05-24T03:05:49.611Z,20.10
2023-05-24T03:08:16.772Z,20.10
2023-05-24T03:10:43.751Z,20.00
2023-05-24T03:13:10.759Z,20.00
2023-05-24T03:15:37.396Z,20.00
2023-05-24T03:18:04.089Z,20.00
2023-05-24T03:20:31.169Z,20.00
2023-05-24T03:22:57.977Z,20.00
2023-05-24T03:25:24.569Z,20.00
2023-05-24T03:27:51.177Z,20.00
2023-05-24T03:30:17.853Z,20.00
2023-05-24T03:32:44.510Z,20.00
2023-05-24T03:35:12.257Z,20.00
2023-05-24T03:37:39.295Z,19.90
2023-05-24T03:40:06.788Z,19.90
2023-05-24T03:42:33.468Z,19.90
2023-05-24T03:45:00.061Z,19.90
2023-05-24T03:47:26.713Z,19.90
2023-05-24T03:49:53.346Z,19.90
2023-05-24T03:52:20.005Z,19.90
2023-05-24T03:54:46.617Z,19.90
2023-05-24T03:57:13.253Z,19.90
2023-05-24T03:59:41.281Z,20.00
2023-05-24T04:02:08.388Z,20.00
2023-05-24T04:04:36.982Z,20.00
2023-05-24T04:07:03.644Z,20.00
2023-05-24T04:09:30.297Z,20.00
2023-05-24T04:11:56.967Z,20.00
2023-05-24T04:14:23.589Z,20.00
2023-05-24T04:16:50.245Z,20.00
2023-05-24T04:19:16.907Z,20.00
2023-05-24T04:21:44.397Z,20.00
2023-05-24T04:24:11.363Z,20.00
2023-05-24T04:26:37.959Z,20.10
2023-05-24T04:29:04.719Z,20.00
2023-05-24T04:31:33.393Z,20.20
2023-05-24T04:34:00.240Z,20.00
2023-05-24T04:36:26.859Z,20.00
2023-05-24T04:38:53.763Z,19.90
2023-05-24T04:41:22.332Z,19.90
2023-05-24T04:43:48.930Z,19.90
2023-05-24T04:46:16.001Z,20.00
2023-05-24T04:48:42.657Z,20.00
2023-05-24T04:51:09.469Z,20.00
2023-05-24T04:53:36.095Z,20.00
2023-05-24T04:56:02.689Z,20.00
2023-05-24T04:58:29.270Z,20.00
2023-05-24T05:00:55.937Z,20.10
2023-05-24T05:03:22.676Z,20.00
2023-05-24T05:05:49.381Z,20.00
2023-05-24T05:08:15.982Z,20.00
2023-05-24T05:10:42.786Z,20.10
2023-05-24T05:13:09.604Z,20.00
2023-05-24T05:15:36.211Z,20.00
2023-05-24T05:18:02.866Z,20.00
2023-05-24T05:20:29.576Z,19.90
2023-05-24T05:22:56.290Z,19.90
2023-05-24T05:25:22.908Z,19.90
2023-05-24T05:27:49.545Z,19.90
2023-05-24T05:30:16.457Z,19.90
2023-05-24T05:32:43.239Z,19.90
2023-05-24T05:35:09.936Z,20.00
2023-05-24T05:37:36.559Z,20.00
2023-05-24T05:40:04.493Z,20.10
2023-05-24T05:42:31.103Z,20.10
2023-05-24T05:44:57.786Z,20.20
2023-05-24T05:47:24.454Z,20.40
2023-05-24T05:49:51.130Z,20.40
2023-05-24T05:52:17.778Z,20.30
2023-05-24T05:54:44.425Z,20.30
2023-05-24T05:57:11.671Z,20.40
2023-05-24T05:59:38.384Z,20.40
2023-05-24T06:02:06.679Z,20.40
2023-05-24T06:04:33.907Z,20.50
2023-05-24T06:07:00.691Z,20.40
2023-05-24T06:09:27.381Z,20.40
2023-05-24T06:11:54.009Z,20.60
2023-05-24T06:14:22.197Z,20.50
2023-05-24T06:16:48.930Z,20.30
2023-05-24T06:19:16.574Z,20.20
2023-05-24T06:21:48.201Z,20.20
2023-05-24T06:24:15.666Z,20.20
2023-05-24T06:26:42.885Z,20.10
2023-05-24T06:29:09.813Z,20.10
2023-05-24T06:31:36.514Z,20.00
2023-05-24T06:34:04.608Z,20.00
2023-05-24T06:36:35.872Z,20.20
2023-05-24T06:39:02.789Z,20.00
2023-05-24T06:41:29.480Z,20.00
2023-05-24T06:43:56.144Z,20.00
2023-05-24T06:46:22.754Z,20.40
2023-05-24T06:48:49.475Z,20.00
2023-05-24T06:51:16.390Z,20.10
2023-05-24T06:53:43.095Z,20.00
2023-05-24T06:56:09.691Z,20.00
2023-05-24T06:58:36.666Z,19.90
2023-05-24T07:01:05.093Z,19.90
2023-05-24T07:03:32.468Z,19.90
2023-05-24T07:05:59.141Z,20.00
2023-05-24T07:08:25.826Z,20.00
2023-05-24T07:10:53.557Z,20.00
2023-05-24T07:13:20.326Z,20.00
2023-05-24T07:15:47.025Z,20.00
2023-05-24T07:18:14.175Z,20.00
2023-05-24T07:20:41.357Z,20.00
2023-05-24T07:23:08.477Z,20.00
2023-05-24T07:25:35.083Z,20.00
2023-05-24T07:28:01.731Z,20.00
2023-05-24T07:30:46.694Z,20.00
2023-05-24T07:33:13.796Z,20.00
2023-05-24T07:35:40.520Z,19.90
2023-05-24T07:38:07.702Z,19.80
2023-05-24T07:40:34.921Z,19.90
2023-05-24T07:45:28.214Z,19.90
2023-05-24T07:47:56.857Z,19.90
2023-05-24T07:50:23.803Z,20.10
2023-05-24T07:52:51.273Z,20.00
2023-05-24T07:55:18.205Z,20.00
2023-05-24T07:57:44.877Z,20.00
2023-05-24T08:00:14.627Z,20.20
2023-05-24T08:02:42.155Z,20.00
2023-05-24T08:05:10.213Z,20.00
2023-05-24T08:07:36.805Z,20.00
2023-05-24T08:10:03.470Z,20.00
2023-05-24T08:12:33.068Z,20.00
2023-05-24T08:14:59.675Z,19.90
2023-05-24T08:17:26.858Z,19.90
2023-05-24T08:19:53.501Z,19.90
2023-05-24T08:22:22.070Z,19.90
2023-05-24T08:24:48.685Z,19.90
2023-05-24T08:27:15.504Z,19.90
2023-05-24T08:29:42.197Z,19.90
2023-05-24T08:32:09.759Z,19.90
2023-05-24T08:34:37.412Z,19.90
2023-05-24T08:37:04.661Z,19.90
2023-05-24T08:39:31.354Z,20.00
2023-05-24T08:42:08.620Z,19.90
2023-05-24T08:44:51.821Z,19.90
2023-05-24T08:47:20.061Z,20.00
2023-05-24T08:49:47.511Z,20.00
2023-05-24T08:52:14.651Z,19.90
2023-05-24T08:54:41.853Z,19.90
2023-05-24T08:57:08.808Z,19.80
2023-05-24T08:59:35.493Z,19.90
2023-05-24T09:02:02.726Z,19.90
2023-05-24T09:04:29.744Z,19.90
2023-05-24T09:06:56.463Z,19.90
2023-05-24T09:09:27.167Z,19.80
2023-05-24T09:11:55.159Z,19.90
2023-05-24T09:14:21.900Z,19.90
2023-05-24T09:16:48.631Z,19.90
2023-05-24T09:19:16.334Z,19.90
2023-05-24T09:21:43.004Z,19.90
2023-05-24T09:24:11.324Z,19.90
2023-05-24T09:26:38.017Z,19.90
2023-05-24T09:29:07.717Z,19.90
2023-05-24T09:31:35.022Z,20.00
2023-05-24T09:34:01.963Z,19.90
2023-05-24T09:36:33.047Z,19.90
2023-05-24T09:39:07.910Z,19.90
2023-05-24T09:41:34.549Z,19.90
2023-05-24T09:44:01.750Z,19.90
2023-05-24T09:46:29.860Z,19.90
2023-05-24T09:49:00.199Z,19.90
2023-05-24T09:51:27.024Z,19.90
2023-05-24T09:53:56.807Z,19.90
2023-05-24T09:56:23.780Z,20.00
2023-05-24T09:58:51.580Z,19.90
2023-05-24T10:01:19.212Z,19.90
2023-05-24T10:03:56.280Z,20.00
2023-05-24T10:06:23.978Z,19.90
2023-05-24T10:08:51.865Z,19.90
2023-05-24T10:11:18.785Z,20.10
2023-05-24T10:13:45.400Z,19.90
2023-05-24T10:16:12.044Z,19.90
2023-05-24T10:18:38.689Z,19.90
2023-05-24T10:21:08.519Z,19.90
2023-05-24T10:23:37.121Z,19.90
2023-05-24T10:26:07.736Z,19.90
2023-05-24T10:28:43.106Z,19.90
2023-05-24T10:31:18.005Z,19.90
2023-05-24T10:33:45.279Z,19.90
2023-05-24T10:36:13.799Z,19.90
2023-05-24T10:38:40.922Z,19.90
2023-05-24T10:41:08.213Z,19.90
2023-05-24T10:43:36.147Z,19.90
2023-05-24T10:46:04.583Z,19.90
2023-05-24T10:48:36.406Z,19.90
2023-05-24T10:51:29.447Z,19.90
2023-05-24T10:53:57.385Z,19.90
2023-05-24T10:56:24.046Z,19.90
2023-05-24T10:58:59.927Z,19.90
2023-05-24T11:01:31.874Z,20.00
2023-05-24T11:04:12.656Z,20.00
2023-05-24T11:07:05.674Z,20.00
2023-05-24T11:09:33.342Z,20.00
2023-05-24T11:12:02.185Z,20.30
2023-05-24T11:14:29.383Z,20.00
2023-05-24T11:16:56.227Z,19.90
2023-05-24T11:19:30.721Z,19.90
2023-05-24T11:22:00.696Z,19.90
2023-05-24T11:24:27.971Z,20.20
2023-05-24T11:26:54.779Z,19.90
2023-05-24T11:29:22.507Z,19.90
2023-05-24T11:31:50.777Z,19.90
2023-05-24T11:34:17.755Z,20.00
2023-05-24T11:36:45.320Z,19.90
2023-05-24T11:39:13.577Z,19.90
2023-05-24T11:41:40.736Z,19.90
2023-05-24T11:44:08.335Z,20.00
2023-05-24T11:46:35.197Z,20.10
2023-05-24T11:49:02.265Z,20.10
2023-05-24T11:51:29.554Z,20.20
2023-05-24T11:53:59.413Z,20.20
2023-05-24T11:56:28.255Z,20.20
2023-05-24T11:59:15.598Z,20.30
2023-05-24T12:01:42.611Z,20.30
2023-05-24T12:04:10.036Z,20.20
2023-05-24T12:06:40.860Z,20.30
2023-05-24T12:09:09.166Z,20.30
2023-05-24T12:11:42.855Z,20.20
2023-05-24T12:14:13.665Z,20.20
2023-05-24T12:16:42.524Z,20.20
2023-05-24T12:19:20.298Z,20.20
2023-05-24T12:21:58.888Z,20.20
2023-05-24T12:24:26.117Z,20.20
2023-05-24T12:26:57.460Z,20.10
2023-05-24T12:29:24.078Z,20.10
2023-05-24T12:31:51.342Z,20.10
2023-05-24T12:34:19.095Z,20.10
2023-05-24T12:36:46.319Z,20.30
2023-05-24T12:39:18.083Z,20.00
2023-05-24T12:41:45.067Z,20.00
2023-05-24T12:44:12.087Z,20.10
2023-05-24T12:46:38.786Z,20.10
2023-05-24T12:49:05.510Z,20.20
2023-05-24T12:51:32.190Z,20.10
2023-05-24T12:53:58.808Z,20.10
2023-05-24T12:56:27.394Z,20.10
2023-05-24T12:58:55.741Z,20.10
2023-05-24T13:01:22.635Z,20.30
2023-05-24T13:03:49.502Z,20.10
2023-05-24T13:06:16.457Z,20.10
2023-05-24T13:08:43.600Z,20.10
2023-05-24T13:11:10.464Z,20.10
2023-05-24T13:13:38.261Z,20.10
2023-05-24T13:16:08.923Z,20.10
2023-05-24T13:18:35.595Z,20.10
2023-05-24T13:21:02.426Z,20.10
2023-05-24T13:23:29.385Z,20.10
2023-05-24T13:25:56.040Z,20.10
2023-05-24T13:28:22.692Z,20.10
2023-05-24T13:30:49.619Z,20.10
2023-05-24T13:33:16.350Z,20.10
2023-05-24T13:35:43.165Z,20.30
2023-05-24T13:38:10.218Z,20.10
2023-05-24T13:40:38.351Z,20.10
2023-05-24T13:43:06.781Z,20.10
2023-05-24T13:45:34.465Z,20.10
2023-05-24T13:48:04.294Z,20.10
2023-05-24T13:50:32.032Z,20.00
2023-05-24T13:53:00.689Z,20.10
2023-05-24T13:55:28.789Z,20.10
2023-05-24T13:57:55.786Z,20.10
2023-05-24T14:00:23.165Z,20.10
2023-05-24T14:02:49.897Z,20.10
2023-05-24T14:07:46.467Z,20.20
2023-05-24T14:10:13.225Z,20.10
2023-05-24T14:12:40.008Z,20.20
2023-05-24T14:15:07.388Z,20.10
2023-05-24T14:17:34.083Z,20.10
2023-05-24T14:20:00.921Z,20.10
2023-05-24T14:22:29.344Z,20.10
2023-05-24T14:24:56.058Z,20.00
2023-05-24T14:27:22.705Z,20.10
2023-05-24T14:29:49.312Z,20.10
2023-05-24T14:32:17.747Z,20.10
2023-05-24T14:34:44.483Z,20.10
2023-05-24T14:37:11.171Z,20.20
2023-05-24T14:39:37.767Z,20.20
2023-05-24T14:42:04.490Z,20.20
2023-05-24T14:44:31.096Z,20.20
2023-05-24T14:46:57.695Z,20.10
2023-05-24T14:49:24.359Z,20.10
2023-05-24T14:51:51.268Z,20.20
2023-05-24T14:54:17.950Z,20.10
2023-05-24T14:56:44.578Z,20.10
2023-05-24T14:59:11.183Z,20.10
2023-05-24T15:01:37.867Z,20.20
2023-05-24T15:04:04.564Z,20.00
2023-05-24T15:06:34.881Z,20.00
2023-05-24T15:09:02.548Z,20.00
2023-05-24T15:11:29.569Z,20.00
2023-05-24T15:13:58.730Z,20.00
2023-05-24T15:16:25.986Z,20.00
2023-05-24T15:18:52.681Z,20.00
2023-05-24T15:21:19.660Z,19.90
2023-05-24T15:23:46.754Z,19.90
2023-05-24T15:26:13.584Z,20.20
2023-05-24T15:28:40.399Z,20.10
2023-05-24T15:31:07.115Z,20.00
2023-05-24T15:33:35.654Z,20.00
2023-05-24T15:36:03.433Z,20.10
2023-05-24T15:38:30.325Z,20.10
2023-05-24T15:40:56.971Z,20.10
2023-05-24T15:43:23.595Z,20.20
2023-05-24T15:45:50.274Z,20.10
2023-05-24T15:48:16.932Z,20.30
2023-05-24T15:51:09.282Z,20.10
2023-05-24T15:53:30.921Z,20.10
2023-05-24T15:55:57.548Z,20.20
2023-05-24T15:58:24.479Z,20.20
2023-05-24T16:00:52.733Z,20.10
2023-05-24T16:03:20.097Z,20.10
2023-05-24T16:05:50.501Z,20.10
2023-05-24T16:08:17.298Z,20.20
2023-05-24T16:10:48.332Z,20.10
2023-05-24T16:13:14.996Z,20.10
2023-05-24T16:15:42.448Z,20.10
2023-05-24T16:18:09.315Z,20.20
2023-05-24T16:20:36.715Z,20.20
2023-05-24T16:23:03.753Z,20.30
2023-05-24T16:25:30.568Z,20.30
2023-05-24T16:27:57.223Z,20.40
2023-05-24T16:30:23.972Z,20.40
2023-05-24T16:32:50.639Z,20.40
2023-05-24T16:35:17.321Z,20.70
2023-05-24T16:37:44.004Z,20.50
2023-05-24T16:40:11.142Z,20.50
2023-05-24T16:42:37.792Z,20.50
2023-05-24T16:45:04.846Z,20.40
2023-05-24T16:47:32.210Z,20.40
2023-05-24T16:49:58.890Z,20.40
2023-05-24T16:52:25.482Z,20.40
2023-05-24T16:54:52.085Z,20.40
2023-05-24T16:57:18.695Z,20.40
2023-05-24T16:59:45.486Z,20.40
2023-05-24T17:02:12.104Z,20.30
2023-05-24T17:04:38.820Z,20.60
2023-05-24T17:07:05.661Z,20.30
2023-05-24T17:09:32.283Z,20.30
2023-05-24T17:11:58.923Z,20.30
2023-05-24T17:14:25.687Z,20.20
2023-05-24T17:16:52.311Z,20.20
2023-05-24T17:19:20.895Z,20.20
2023-05-24T17:21:47.526Z,20.20
2023-05-24T17:24:14.208Z,20.20
2023-05-24T17:26:42.138Z,20.20
2023-05-24T17:29:09.233Z,20.20
2023-05-24T17:31:36.161Z,20.20
2023-05-24T17:34:03.147Z,20.40
2023-05-24T17:36:33.388Z,20.20
2023-05-24T17:39:00.111Z,20.20
2023-05-24T17:41:26.829Z,20.20
2023-05-24T17:43:53.520Z,20.30
2023-05-24T17:46:20.192Z,20.10
2023-05-24T17:48:47.771Z,20.10
2023-05-24T17:51:14.904Z,20.20
2023-05-24T17:53:43.228Z,20.10
2023-05-24T17:56:09.970Z,20.10
2023-05-24T17:58:37.386Z,20.20
2023-05-24T18:01:05.249Z,20.10
2023-05-24T18:03:32.416Z,20.10
2023-05-24T18:05:59.264Z,20.10
2023-05-24T18:08:25.949Z,20.10
2023-05-24T18:10:52.571Z,20.10
2023-05-24T18:13:19.403Z,20.10
2023-05-24T18:15:46.152Z,20.10
2023-05-24T18:18:13.466Z,20.10
2023-05-24T18:20:40.523Z,20.10
2023-05-24T18:23:07.235Z,20.00
2023-05-24T18:25:33.857Z,20.00
2023-05-24T18:28:00.863Z,20.00
2023-05-24T18:30:27.494Z,20.00
2023-05-24T18:33:05.576Z,20.00
2023-05-24T18:35:34.729Z,19.90
2023-05-24T18:38:01.310Z,20.00
2023-05-24T18:40:27.936Z,20.00
2023-05-24T18:42:54.571Z,20.00
2023-05-24T18:45:21.227Z,20.20
2023-05-24T18:47:47.930Z,20.00
2023-05-24T18:50:16.038Z,20.10
2023-05-24T18:52:44.045Z,19.60
2023-05-24T18:55:11.334Z,20.10
2023-05-24T18:57:38.759Z,20.20
2023-05-24T19:00:07.193Z,20.30
2023-05-24T19:02:39.433Z,20.00
2023-05-24T19:05:08.568Z,19.90
2023-05-24T19:07:35.612Z,20.00
2023-05-24T19:10:03.253Z,20.00
2023-05-24T19:12:30.402Z,20.10
2023-05-24T19:14:57.451Z,19.90
2023-05-24T19:17:25.689Z,20.10
2023-05-24T19:19:54.839Z,19.90
2023-05-24T19:22:21.732Z,19.90
2023-05-24T19:24:48.470Z,20.00
2023-05-24T19:27:15.178Z,19.80
2023-05-24T19:29:41.824Z,20.00
2023-05-24T19:32:08.942Z,20.00
2023-05-24T19:34:37.710Z,20.00
2023-05-24T19:37:05.513Z,20.00
2023-05-24T19:39:32.125Z,20.00
2023-05-24T19:41:59.724Z,20.00
2023-05-24T19:44:26.647Z,20.30
2023-05-24T19:46:53.453Z,20.00
2023-05-24T19:49:20.202Z,20.00
2023-05-24T19:51:46.980Z,19.90
2023-05-24T19:54:14.979Z,20.00
2023-05-24T19:56:41.704Z,19.90
2023-05-24T19:59:08.531Z,20.00
2023-05-24T20:01:35.737Z,19.70
2023-05-24T20:04:02.493Z,20.00
2023-05-24T20:06:29.664Z,20.00
2023-05-24T20:09:00.131Z,20.10
2023-05-24T20:11:27.179Z,20.00
2023-05-24T20:13:56.327Z,20.00
2023-05-24T20:16:23.438Z,20.00
2023-05-24T20:18:53.264Z,20.00
2023-05-24T20:21:20.187Z,19.90
2023-05-24T20:23:47.297Z,19.90
2023-05-24T20:26:14.426Z,19.60
2023-05-24T20:28:41.025Z,19.90
2023-05-24T20:31:07.814Z,19.90
2023-05-24T20:33:38.480Z,19.90
2023-05-24T20:36:05.460Z,19.90
2023-05-24T20:38:32.191Z,19.90
2023-05-24T20:40:58.896Z,19.90
2023-05-24T20:43:25.700Z,19.70
2023-05-24T20:45:52.331Z,19.90
2023-05-24T20:48:19.134Z,20.20
2023-05-24T20:50:46.260Z,20.20
2023-05-24T20:53:12.919Z,19.90
2023-05-24T20:55:39.500Z,20.10
2023-05-24T20:58:06.169Z,19.90
2023-05-24T21:00:32.905Z,19.90
2023-05-24T21:02:59.560Z,19.90
2023-05-24T21:05:26.249Z,19.90
2023-05-24T21:07:52.837Z,20.20
2023-05-24T21:10:19.652Z,20.10
2023-05-24T21:12:46.484Z,20.10
2023-05-24T21:15:13.372Z,20.10
2023-05-24T21:17:40.315Z,20.30
2023-05-24T21:20:07.876Z,20.20
2023-05-24T21:22:34.845Z,20.20
2023-05-24T21:25:01.522Z,20.30
2023-05-24T21:27:28.224Z,20.30
2023-05-24T21:29:54.930Z,20.30
2023-05-24T21:32:21.694Z,20.40
2023-05-24T21:34:49.828Z,20.30
2023-05-24T21:37:17.611Z,19.60
2023-05-24T21:39:44.714Z,20.60
2023-05-24T21:42:11.445Z,20.20
2023-05-24T21:44:38.350Z,20.20
2023-05-24T21:47:05.428Z,20.30
2023-05-24T21:49:32.599Z,20.20
2023-05-24T21:51:59.815Z,20.20
2023-05-24T21:54:26.732Z,20.10
2023-05-24T21:56:53.617Z,20.10
2023-05-24T21:59:21.440Z,20.10
2023-05-24T22:01:48.690Z,20.00
2023-05-24T22:04:15.944Z,20.00
2023-05-24T22:06:44.809Z,20.00
2023-05-24T22:09:12.691Z,20.00
2023-05-24T22:11:41.213Z,20.00
2023-05-24T22:14:07.910Z,20.00
2023-05-24T22:16:34.717Z,20.00
2023-05-24T22:19:03.260Z,19.70
2023-05-24T22:21:34.299Z,20.00
2023-05-24T22:24:01.489Z,20.50
2023-05-24T22:26:28.223Z,20.00
2023-05-24T22:28:56.019Z,20.10
2023-05-24T22:31:24.022Z,20.00
2023-05-24T22:33:50.832Z,20.00
2023-05-24T22:36:19.247Z,20.40
2023-05-24T22:38:46.380Z,20.00
2023-05-24T22:41:13.069Z,20.50
2023-05-24T22:43:39.781Z,20.50
2023-05-24T22:46:08.474Z,19.90
2023-05-24T22:48:37.989Z,19.90
2023-05-24T22:51:04.986Z,19.90
2023-05-24T22:53:32.208Z,19.90
2023-05-24T22:55:58.884Z,19.90
2023-05-24T22:58:25.786Z,19.90
2023-05-24T23:00:52.887Z,20.00
2023-05-24T23:03:19.630Z,20.00
2023-05-24T23:05:46.233Z,20.10
2023-05-24T23:08:13.132Z,20.00
2023-05-24T23:10:45.823Z,20.00
2023-05-24T23:13:13.216Z,20.00
2023-05-24T23:15:39.935Z,20.00
2023-05-24T23:18:07.099Z,20.20
2023-05-24T23:20:40.143Z,20.20
2023-05-24T23:23:07.776Z,20.40
2023-05-24T23:25:34.516Z,19.90
2023-05-24T23:28:01.413Z,20.00
2023-05-24T23:30:28.487Z,19.90
2023-05-24T23:32:55.199Z,19.90
2023-05-24T23:35:22.068Z,19.90
2023-05-24T23:37:48.760Z,20.20
2023-05-24T23:40:15.404Z,19.90
2023-05-24T23:42:42.054Z,20.00
2023-05-24T23:45:08.819Z,19.90
2023-05-24T23:47:35.457Z,19.90
2023-05-24T23:50:02.182Z,19.60
2023-05-24T23:52:28.874Z,20.00
2023-05-24T23:54:55.502Z,20.20
2023-05-24T23:57:24.869Z,19.90
2023-05-24T23:59:51.595Z,19.90
